sensor_id;sensor_type;location;lat;lon;timestamp;P1;durP1;ratioP1;P2;durP2;ratioP2
24086;SDS011;22893;50.572;7.234;2023-02-11T00:01:10;8.30;;;3.70;;
24086;SDS011;22893;50.572;7.234;2023-02-11T00:03:39;4.72;;;2.83;;
24086;SDS011;22893;50.572;7.234;2023-02-11T00:06:07;4.92;;;3.20;;
24086;SDS011;22893;50.572;7.234;2023-02-11T00:08:36;6.05;;;3.15;;
24086;SDS011;22893;50.572;7.234;2023-02-11T00:11:04;7.72;;;3.50;;
24086;SDS011;22893;50.572;7.234;2023-02-11T00:13:32;5.22;;;2.80;;
24086;SDS011;22893;50.572;7.234;2023-02-11T00:16:04;6.90;;;3.50;;
24086;SDS011;22893;50.572;7.234;2023-02-11T00:18:32;8.68;;;3.92;;
24086;SDS011;22893;50.572;7.234;2023-02-11T00:21:08;6.30;;;3.15;;
24086;SDS011;22893;50.572;7.234;2023-02-11T00:23:37;5.67;;;3.37;;
24086;SDS011;22893;50.572;7.234;2023-02-11T00:26:15;6.20;;;3.52;;
24086;SDS011;22893;50.572;7.234;2023-02-11T00:28:45;7.85;;;2.92;;
24086;SDS011;22893;50.572;7.234;2023-02-11T00:31:14;5.17;;;3.08;;
24086;SDS011;22893;50.572;7.234;2023-02-11T00:33:44;6.60;;;3.50;;
24086;SDS011;22893;50.572;7.234;2023-02-11T00:36:18;6.47;;;3.52;;
24086;SDS011;22893;50.572;7.234;2023-02-11T00:38:42;7.70;;;3.45;;
24086;SDS011;22893;50.572;7.234;2023-02-11T00:41:11;5.28;;;3.70;;
24086;SDS011;22893;50.572;7.234;2023-02-11T00:43:40;7.30;;;3.27;;
24086;SDS011;22893;50.572;7.234;2023-02-11T00:46:07;6.35;;;3.52;;
24086;SDS011;22893;50.572;7.234;2023-02-11T00:48:36;5.08;;;3.15;;
24086;SDS011;22893;50.572;7.234;2023-02-11T00:51:03;5.42;;;2.98;;
24086;SDS011;22893;50.572;7.234;2023-02-11T00:53:32;5.00;;;3.00;;
24086;SDS011;22893;50.572;7.234;2023-02-11T00:56:00;7.12;;;3.22;;
24086;SDS011;22893;50.572;7.234;2023-02-11T00:58:28;7.97;;;3.00;;
24086;SDS011;22893;50.572;7.234;2023-02-11T01:00:56;8.15;;;3.80;;
24086;SDS011;22893;50.572;7.234;2023-02-11T01:03:24;4.45;;;2.72;;
24086;SDS011;22893;50.572;7.234;2023-02-11T01:05:51;6.87;;;3.90;;
24086;SDS011;22893;50.572;7.234;2023-02-11T01:08:19;8.50;;;3.25;;
24086;SDS011;22893;50.572;7.234;2023-02-11T01:10:53;4.97;;;3.20;;
24086;SDS011;22893;50.572;7.234;2023-02-11T01:13:25;5.92;;;3.17;;
24086;SDS011;22893;50.572;7.234;2023-02-11T01:15:53;7.50;;;3.72;;
24086;SDS011;22893;50.572;7.234;2023-02-11T01:18:22;5.70;;;3.02;;
24086;SDS011;22893;50.572;7.234;2023-02-11T01:20:50;7.58;;;3.55;;
24086;SDS011;22893;50.572;7.234;2023-02-11T01:23:18;6.22;;;3.22;;
24086;SDS011;22893;50.572;7.234;2023-02-11T01:25:46;7.97;;;3.02;;
24086;SDS011;22893;50.572;7.234;2023-02-11T01:28:20;5.92;;;3.08;;
24086;SDS011;22893;50.572;7.234;2023-02-11T01:30:44;5.65;;;3.17;;
24086;SDS011;22893;50.572;7.234;2023-02-11T01:33:12;7.55;;;3.37;;
24086;SDS011;22893;50.572;7.234;2023-02-11T01:35:40;7.70;;;2.72;;
24086;SDS011;22893;50.572;7.234;2023-02-11T01:38:16;5.55;;;3.00;;
24086;SDS011;22893;50.572;7.234;2023-02-11T01:40:47;6.72;;;3.95;;
24086;SDS011;22893;50.572;7.234;2023-02-11T01:43:18;5.58;;;2.62;;
24086;SDS011;22893;50.572;7.234;2023-02-11T01:48:23;5.33;;;2.70;;
24086;SDS011;22893;50.572;7.234;2023-02-11T01:50:49;8.03;;;3.65;;
24086;SDS011;22893;50.572;7.234;2023-02-11T01:53:19;5.78;;;3.20;;
24086;SDS011;22893;50.572;7.234;2023-02-11T01:56:05;7.50;;;3.77;;
24086;SDS011;22893;50.572;7.234;2023-02-11T01:58:52;5.12;;;2.85;;
24086;SDS011;22893;50.572;7.234;2023-02-11T02:01:23;4.12;;;3.17;;
24086;SDS011;22893;50.572;7.234;2023-02-11T02:03:53;4.35;;;3.00;;
24086;SDS011;22893;50.572;7.234;2023-02-11T02:06:24;5.78;;;2.55;;
24086;SDS011;22893;50.572;7.234;2023-02-11T02:09:10;7.05;;;3.12;;
24086;SDS011;22893;50.572;7.234;2023-02-11T02:11:35;5.28;;;3.00;;
24086;SDS011;22893;50.572;7.234;2023-02-11T02:14:03;5.53;;;3.27;;
24086;SDS011;22893;50.572;7.234;2023-02-11T02:16:33;5.00;;;2.67;;
24086;SDS011;22893;50.572;7.234;2023-02-11T02:22:11;6.80;;;3.40;;
24086;SDS011;22893;50.572;7.234;2023-02-11T02:33:03;5.67;;;3.37;;
24086;SDS011;22893;50.572;7.234;2023-02-11T02:36:06;5.42;;;2.87;;
24086;SDS011;22893;50.572;7.234;2023-02-11T02:39:00;5.08;;;2.45;;
24086;SDS011;22893;50.572;7.234;2023-02-11T02:41:25;4.80;;;3.10;;
24086;SDS011;22893;50.572;7.234;2023-02-11T02:43:54;4.15;;;2.62;;
24086;SDS011;22893;50.572;7.234;2023-02-11T02:46:23;5.20;;;2.67;;
24086;SDS011;22893;50.572;7.234;2023-02-11T02:48:55;4.80;;;2.95;;
24086;SDS011;22893;50.572;7.234;2023-02-11T02:51:41;5.67;;;2.62;;
24086;SDS011;22893;50.572;7.234;2023-02-11T02:57:26;5.45;;;2.87;;
24086;SDS011;22893;50.572;7.234;2023-02-11T03:02:57;5.67;;;2.42;;
24086;SDS011;22893;50.572;7.234;2023-02-11T03:10:56;5.67;;;3.12;;
24086;SDS011;22893;50.572;7.234;2023-02-11T03:13:26;4.87;;;2.92;;
24086;SDS011;22893;50.572;7.234;2023-02-11T03:15:57;4.90;;;3.05;;
24086;SDS011;22893;50.572;7.234;2023-02-11T03:18:27;6.72;;;2.65;;
24086;SDS011;22893;50.572;7.234;2023-02-11T03:20:56;5.50;;;3.15;;
24086;SDS011;22893;50.572;7.234;2023-02-11T03:23:27;6.90;;;3.12;;
24086;SDS011;22893;50.572;7.234;2023-02-11T03:26:21;5.53;;;2.80;;
24086;SDS011;22893;50.572;7.234;2023-02-11T03:39:22;5.12;;;2.80;;
24086;SDS011;22893;50.572;7.234;2023-02-11T03:41:52;5.42;;;2.67;;
24086;SDS011;22893;50.572;7.234;2023-02-11T03:44:21;5.00;;;2.67;;
24086;SDS011;22893;50.572;7.234;2023-02-11T03:46:52;5.70;;;3.50;;
24086;SDS011;22893;50.572;7.234;2023-02-11T03:49:21;5.78;;;2.50;;
24086;SDS011;22893;50.572;7.234;2023-02-11T03:51:50;5.92;;;2.95;;
24086;SDS011;22893;50.572;7.234;2023-02-11T03:54:23;4.83;;;2.70;;
24086;SDS011;22893;50.572;7.234;2023-02-11T03:56:51;5.42;;;2.85;;
24086;SDS011;22893;50.572;7.234;2023-02-11T03:59:21;4.33;;;2.42;;
24086;SDS011;22893;50.572;7.234;2023-02-11T04:01:48;5.75;;;2.58;;
24086;SDS011;22893;50.572;7.234;2023-02-11T04:04:16;5.22;;;2.85;;
24086;SDS011;22893;50.572;7.234;2023-02-11T04:06:44;5.60;;;2.98;;
24086;SDS011;22893;50.572;7.234;2023-02-11T04:09:12;5.17;;;3.15;;
24086;SDS011;22893;50.572;7.234;2023-02-11T04:11:40;5.35;;;2.80;;
24086;SDS011;22893;50.572;7.234;2023-02-11T04:14:08;6.50;;;2.83;;
24086;SDS011;22893;50.572;7.234;2023-02-11T04:16:35;4.90;;;3.02;;
24086;SDS011;22893;50.572;7.234;2023-02-11T04:19:03;12.37;;;6.12;;
24086;SDS011;22893;50.572;7.234;2023-02-11T04:21:30;12.70;;;6.08;;
24086;SDS011;22893;50.572;7.234;2023-02-11T04:23:58;10.78;;;5.92;;
24086;SDS011;22893;50.572;7.234;2023-02-11T04:26:25;9.43;;;5.00;;
24086;SDS011;22893;50.572;7.234;2023-02-11T04:28:53;8.03;;;4.60;;
24086;SDS011;22893;50.572;7.234;2023-02-11T04:31:20;9.20;;;3.80;;
24086;SDS011;22893;50.572;7.234;2023-02-11T04:33:48;5.53;;;2.90;;
24086;SDS011;22893;50.572;7.234;2023-02-11T04:36:15;6.17;;;3.00;;
24086;SDS011;22893;50.572;7.234;2023-02-11T04:38:43;6.72;;;3.15;;
24086;SDS011;22893;50.572;7.234;2023-02-11T04:41:11;8.50;;;3.42;;
24086;SDS011;22893;50.572;7.234;2023-02-11T04:43:38;5.62;;;2.80;;
24086;SDS011;22893;50.572;7.234;2023-02-11T04:46:06;5.75;;;3.10;;
24086;SDS011;22893;50.572;7.234;2023-02-11T04:48:33;5.37;;;2.72;;
24086;SDS011;22893;50.572;7.234;2023-02-11T04:51:01;5.87;;;2.47;;
24086;SDS011;22893;50.572;7.234;2023-02-11T04:53:28;5.10;;;2.62;;
24086;SDS011;22893;50.572;7.234;2023-02-11T04:55:56;6.95;;;3.40;;
24086;SDS011;22893;50.572;7.234;2023-02-11T04:58:23;4.90;;;2.67;;
24086;SDS011;22893;50.572;7.234;2023-02-11T05:00:51;5.35;;;2.55;;
24086;SDS011;22893;50.572;7.234;2023-02-11T05:03:18;13.75;;;6.75;;
24086;SDS011;22893;50.572;7.234;2023-02-11T05:05:46;12.13;;;6.30;;
24086;SDS011;22893;50.572;7.234;2023-02-11T05:08:14;7.05;;;4.33;;
24086;SDS011;22893;50.572;7.234;2023-02-11T05:10:44;7.10;;;3.33;;
24086;SDS011;22893;50.572;7.234;2023-02-11T05:13:13;5.78;;;3.47;;
24086;SDS011;22893;50.572;7.234;2023-02-11T05:15:41;6.05;;;3.35;;
24086;SDS011;22893;50.572;7.234;2023-02-11T05:18:08;6.87;;;3.30;;
24086;SDS011;22893;50.572;7.234;2023-02-11T05:20:37;4.28;;;2.70;;
24086;SDS011;22893;50.572;7.234;2023-02-11T05:23:04;6.03;;;2.95;;
24086;SDS011;22893;50.572;7.234;2023-02-11T05:25:32;6.70;;;2.60;;
24086;SDS011;22893;50.572;7.234;2023-02-11T05:28:00;4.85;;;2.62;;
24086;SDS011;22893;50.572;7.234;2023-02-11T05:30:27;6.40;;;2.95;;
24086;SDS011;22893;50.572;7.234;2023-02-11T05:32:55;5.08;;;3.47;;
24086;SDS011;22893;50.572;7.234;2023-02-11T05:35:23;7.90;;;3.10;;
24086;SDS011;22893;50.572;7.234;2023-02-11T05:37:51;6.53;;;3.42;;
24086;SDS011;22893;50.572;7.234;2023-02-11T05:40:18;5.50;;;3.00;;
24086;SDS011;22893;50.572;7.234;2023-02-11T05:42:46;4.92;;;2.83;;
24086;SDS011;22893;50.572;7.234;2023-02-11T05:45:14;6.33;;;3.00;;
24086;SDS011;22893;50.572;7.234;2023-02-11T05:47:41;5.37;;;2.87;;
24086;SDS011;22893;50.572;7.234;2023-02-11T05:50:09;5.78;;;2.83;;
24086;SDS011;22893;50.572;7.234;2023-02-11T05:52:36;5.83;;;2.58;;
24086;SDS011;22893;50.572;7.234;2023-02-11T05:55:04;7.62;;;3.10;;
24086;SDS011;22893;50.572;7.234;2023-02-11T05:57:32;8.25;;;3.67;;
24086;SDS011;22893;50.572;7.234;2023-02-11T05:59:59;6.70;;;3.65;;
24086;SDS011;22893;50.572;7.234;2023-02-11T06:02:27;6.70;;;3.30;;
24086;SDS011;22893;50.572;7.234;2023-02-11T06:04:55;5.85;;;2.67;;
24086;SDS011;22893;50.572;7.234;2023-02-11T06:07:22;7.30;;;3.08;;
24086;SDS011;22893;50.572;7.234;2023-02-11T06:09:50;5.83;;;2.80;;
24086;SDS011;22893;50.572;7.234;2023-02-11T06:12:17;6.37;;;2.70;;
24086;SDS011;22893;50.572;7.234;2023-02-11T06:14:45;5.53;;;2.90;;
24086;SDS011;22893;50.572;7.234;2023-02-11T06:17:12;5.05;;;2.85;;
24086;SDS011;22893;50.572;7.234;2023-02-11T06:19:40;5.28;;;2.80;;
24086;SDS011;22893;50.572;7.234;2023-02-11T06:22:07;6.05;;;3.12;;
24086;SDS011;22893;50.572;7.234;2023-02-11T06:24:35;5.00;;;2.98;;
24086;SDS011;22893;50.572;7.234;2023-02-11T06:27:03;5.83;;;3.20;;
24086;SDS011;22893;50.572;7.234;2023-02-11T06:29:31;5.70;;;3.05;;
24086;SDS011;22893;50.572;7.234;2023-02-11T06:31:59;6.75;;;3.10;;
24086;SDS011;22893;50.572;7.234;2023-02-11T06:34:26;5.45;;;2.85;;
24086;SDS011;22893;50.572;7.234;2023-02-11T06:36:54;4.58;;;3.02;;
24086;SDS011;22893;50.572;7.234;2023-02-11T06:39:21;5.28;;;2.90;;
24086;SDS011;22893;50.572;7.234;2023-02-11T06:41:49;6.10;;;3.27;;
24086;SDS011;22893;50.572;7.234;2023-02-11T06:44:16;5.40;;;2.98;;
24086;SDS011;22893;50.572;7.234;2023-02-11T06:46:43;3.77;;;2.67;;
24086;SDS011;22893;50.572;7.234;2023-02-11T06:49:11;5.58;;;3.17;;
24086;SDS011;22893;50.572;7.234;2023-02-11T06:51:39;5.72;;;2.67;;
24086;SDS011;22893;50.572;7.234;2023-02-11T06:54:07;5.33;;;2.70;;
24086;SDS011;22893;50.572;7.234;2023-02-11T06:56:34;4.28;;;2.75;;
24086;SDS011;22893;50.572;7.234;2023-02-11T06:59:03;4.97;;;2.85;;
24086;SDS011;22893;50.572;7.234;2023-02-11T07:01:31;5.40;;;2.42;;
24086;SDS011;22893;50.572;7.234;2023-02-11T07:03:59;4.85;;;2.92;;
24086;SDS011;22893;50.572;7.234;2023-02-11T07:06:26;6.25;;;3.27;;
24086;SDS011;22893;50.572;7.234;2023-02-11T07:08:54;6.65;;;2.67;;
24086;SDS011;22893;50.572;7.234;2023-02-11T07:11:23;4.53;;;2.60;;
24086;SDS011;22893;50.572;7.234;2023-02-11T07:13:53;5.87;;;2.72;;
24086;SDS011;22893;50.572;7.234;2023-02-11T07:16:23;4.03;;;2.72;;
24086;SDS011;22893;50.572;7.234;2023-02-11T07:18:50;6.90;;;3.50;;
24086;SDS011;22893;50.572;7.234;2023-02-11T07:21:19;4.42;;;2.45;;
24086;SDS011;22893;50.572;7.234;2023-02-11T07:23:49;4.40;;;2.50;;
24086;SDS011;22893;50.572;7.234;2023-02-11T07:26:19;12.13;;;7.05;;
24086;SDS011;22893;50.572;7.234;2023-02-11T07:28:48;14.05;;;5.72;;
24086;SDS011;22893;50.572;7.234;2023-02-11T07:31:21;5.65;;;2.52;;
24086;SDS011;22893;50.572;7.234;2023-02-11T07:33:46;5.08;;;2.95;;
24086;SDS011;22893;50.572;7.234;2023-02-11T07:36:15;6.67;;;2.92;;
24086;SDS011;22893;50.572;7.234;2023-02-11T07:38:43;5.15;;;2.83;;
24086;SDS011;22893;50.572;7.234;2023-02-11T07:41:12;6.67;;;3.42;;
24086;SDS011;22893;50.572;7.234;2023-02-11T07:43:41;8.25;;;3.17;;
24086;SDS011;22893;50.572;7.234;2023-02-11T07:46:15;6.75;;;3.20;;
24086;SDS011;22893;50.572;7.234;2023-02-11T07:48:40;6.53;;;2.75;;
24086;SDS011;22893;50.572;7.234;2023-02-11T07:51:15;6.40;;;3.42;;
24086;SDS011;22893;50.572;7.234;2023-02-11T07:53:48;4.58;;;2.75;;
24086;SDS011;22893;50.572;7.234;2023-02-11T07:56:17;4.95;;;2.92;;
24086;SDS011;22893;50.572;7.234;2023-02-11T07:58:46;7.67;;;2.58;;
24086;SDS011;22893;50.572;7.234;2023-02-11T08:01:15;6.17;;;2.85;;
24086;SDS011;22893;50.572;7.234;2023-02-11T08:03:44;5.25;;;3.22;;
24086;SDS011;22893;50.572;7.234;2023-02-11T08:06:13;7.83;;;3.62;;
24086;SDS011;22893;50.572;7.234;2023-02-11T08:08:42;9.10;;;3.30;;
24086;SDS011;22893;50.572;7.234;2023-02-11T08:11:15;7.28;;;3.30;;
24086;SDS011;22893;50.572;7.234;2023-02-11T08:13:46;7.37;;;3.05;;
24086;SDS011;22893;50.572;7.234;2023-02-11T08:16:16;4.72;;;2.72;;
24086;SDS011;22893;50.572;7.234;2023-02-11T08:18:45;10.72;;;2.85;;
24086;SDS011;22893;50.572;7.234;2023-02-11T08:21:13;7.78;;;2.52;;
24086;SDS011;22893;50.572;7.234;2023-02-11T08:23:41;4.35;;;2.35;;
24086;SDS011;22893;50.572;7.234;2023-02-11T08:26:14;9.23;;;2.83;;
24086;SDS011;22893;50.572;7.234;2023-02-11T08:28:44;8.03;;;3.33;;
24086;SDS011;22893;50.572;7.234;2023-02-11T08:31:14;5.78;;;2.77;;
24086;SDS011;22893;50.572;7.234;2023-02-11T08:33:44;5.87;;;2.90;;
24086;SDS011;22893;50.572;7.234;2023-02-11T08:36:13;7.60;;;3.00;;
24086;SDS011;22893;50.572;7.234;2023-02-11T08:38:43;9.80;;;2.83;;
24086;SDS011;22893;50.572;7.234;2023-02-11T08:41:11;4.97;;;2.60;;
24086;SDS011;22893;50.572;7.234;2023-02-11T08:43:42;5.08;;;2.85;;
24086;SDS011;22893;50.572;7.234;2023-02-11T08:46:11;7.50;;;2.83;;
24086;SDS011;22893;50.572;7.234;2023-02-11T08:48:40;7.15;;;2.87;;
24086;SDS011;22893;50.572;7.234;2023-02-11T08:51:09;11.78;;;2.85;;
24086;SDS011;22893;50.572;7.234;2023-02-11T08:53:39;5.53;;;3.05;;
24086;SDS011;22893;50.572;7.234;2023-02-11T08:56:07;7.58;;;3.25;;
24086;SDS011;22893;50.572;7.234;2023-02-11T08:58:36;6.37;;;2.50;;
24086;SDS011;22893;50.572;7.234;2023-02-11T09:01:10;10.38;;;3.25;;
24086;SDS011;22893;50.572;7.234;2023-02-11T09:03:40;12.60;;;3.80;;
24086;SDS011;22893;50.572;7.234;2023-02-11T09:06:08;7.62;;;2.55;;
24086;SDS011;22893;50.572;7.234;2023-02-11T09:08:37;6.78;;;2.98;;
24086;SDS011;22893;50.572;7.234;2023-02-11T09:11:08;7.87;;;2.92;;
24086;SDS011;22893;50.572;7.234;2023-02-11T09:13:42;6.87;;;2.85;;
24086;SDS011;22893;50.572;7.234;2023-02-11T09:16:22;9.05;;;3.60;;
24086;SDS011;22893;50.572;7.234;2023-02-11T09:18:46;10.00;;;3.50;;
24086;SDS011;22893;50.572;7.234;2023-02-11T09:21:16;8.55;;;3.33;;
24086;SDS011;22893;50.572;7.234;2023-02-11T09:23:49;9.68;;;3.40;;
24086;SDS011;22893;50.572;7.234;2023-02-11T09:26:18;9.10;;;2.70;;
24086;SDS011;22893;50.572;7.234;2023-02-11T09:28:48;11.15;;;3.60;;
24086;SDS011;22893;50.572;7.234;2023-02-11T09:31:17;6.58;;;3.12;;
24086;SDS011;22893;50.572;7.234;2023-02-11T09:33:47;7.03;;;3.50;;
24086;SDS011;22893;50.572;7.234;2023-02-11T09:36:23;9.78;;;3.40;;
24086;SDS011;22893;50.572;7.234;2023-02-11T09:38:53;6.35;;;2.70;;
24086;SDS011;22893;50.572;7.234;2023-02-11T09:44:03;12.18;;;3.83;;
24086;SDS011;22893;50.572;7.234;2023-02-11T09:46:41;10.58;;;3.10;;
24086;SDS011;22893;50.572;7.234;2023-02-11T09:49:06;8.48;;;3.37;;
24086;SDS011;22893;50.572;7.234;2023-02-11T09:51:55;6.00;;;2.65;;
24086;SDS011;22893;50.572;7.234;2023-02-11T09:56:52;6.90;;;2.92;;
24086;SDS011;22893;50.572;7.234;2023-02-11T09:59:20;10.03;;;3.30;;
24086;SDS011;22893;50.572;7.234;2023-02-11T10:04:43;5.58;;;3.20;;
24086;SDS011;22893;50.572;7.234;2023-02-11T10:23:22;11.45;;;3.83;;
24086;SDS011;22893;50.572;7.234;2023-02-11T10:25:52;6.55;;;2.87;;
24086;SDS011;22893;50.572;7.234;2023-02-11T10:28:28;10.53;;;3.55;;
24086;SDS011;22893;50.572;7.234;2023-02-11T10:31:08;7.08;;;3.52;;
24086;SDS011;22893;50.572;7.234;2023-02-11T10:33:43;6.22;;;2.85;;
24086;SDS011;22893;50.572;7.234;2023-02-11T10:36:13;5.12;;;2.85;;
24086;SDS011;22893;50.572;7.234;2023-02-11T10:38:42;6.72;;;2.80;;
24086;SDS011;22893;50.572;7.234;2023-02-11T10:41:19;8.10;;;3.47;;
24086;SDS011;22893;50.572;7.234;2023-02-11T10:43:47;5.62;;;2.70;;
24086;SDS011;22893;50.572;7.234;2023-02-11T10:46:17;4.87;;;2.33;;
24086;SDS011;22893;50.572;7.234;2023-02-11T10:48:48;4.85;;;2.60;;
24086;SDS011;22893;50.572;7.234;2023-02-11T10:51:21;6.50;;;3.15;;
24086;SDS011;22893;50.572;7.234;2023-02-11T10:56:35;5.28;;;2.90;;
24086;SDS011;22893;50.572;7.234;2023-02-11T11:01:58;4.25;;;2.55;;
24086;SDS011;22893;50.572;7.234;2023-02-11T11:09:57;7.97;;;2.90;;
24086;SDS011;22893;50.572;7.234;2023-02-11T11:12:39;6.53;;;2.92;;
24086;SDS011;22893;50.572;7.234;2023-02-11T11:17:49;4.78;;;2.50;;
24086;SDS011;22893;50.572;7.234;2023-02-11T11:20:23;5.72;;;2.87;;
24086;SDS011;22893;50.572;7.234;2023-02-11T11:23:10;5.97;;;2.70;;
24086;SDS011;22893;50.572;7.234;2023-02-11T11:25:40;8.40;;;3.33;;
24086;SDS011;22893;50.572;7.234;2023-02-11T11:30:47;9.60;;;2.85;;
24086;SDS011;22893;50.572;7.234;2023-02-11T11:33:20;5.28;;;2.85;;
24086;SDS011;22893;50.572;7.234;2023-02-11T11:36:10;5.40;;;2.98;;
24086;SDS011;22893;50.572;7.234;2023-02-11T11:38:22;7.08;;;3.30;;
24086;SDS011;22893;50.572;7.234;2023-02-11T11:41:11;8.68;;;3.83;;
24086;SDS011;22893;50.572;7.234;2023-02-11T11:43:36;8.05;;;4.58;;
24086;SDS011;22893;50.572;7.234;2023-02-11T11:46:04;7.85;;;3.75;;
24086;SDS011;22893;50.572;7.234;2023-02-11T11:48:35;5.62;;;2.90;;
24086;SDS011;22893;50.572;7.234;2023-02-11T11:51:12;6.15;;;3.50;;
24086;SDS011;22893;50.572;7.234;2023-02-11T11:53:42;5.85;;;3.72;;
24086;SDS011;22893;50.572;7.234;2023-02-11T11:56:15;7.25;;;3.02;;
24086;SDS011;22893;50.572;7.234;2023-02-11T11:58:44;5.10;;;2.67;;
24086;SDS011;22893;50.572;7.234;2023-02-11T12:04:11;5.87;;;3.20;;
24086;SDS011;22893;50.572;7.234;2023-02-11T12:12:25;4.30;;;3.02;;
24086;SDS011;22893;50.572;7.234;2023-02-11T12:15:30;7.95;;;3.40;;
24086;SDS011;22893;50.572;7.234;2023-02-11T12:20:50;6.15;;;3.05;;
24086;SDS011;22893;50.572;7.234;2023-02-11T12:32:05;6.05;;;2.80;;
24086;SDS011;22893;50.572;7.234;2023-02-11T12:45:07;17.50;;;3.65;;
24086;SDS011;22893;50.572;7.234;2023-02-11T19:05:10;19.62;;;5.78;;
24086;SDS011;22893;50.572;7.234;2023-02-11T19:07:38;11.97;;;5.65;;
24086;SDS011;22893;50.572;7.234;2023-02-11T19:10:07;7.97;;;4.65;;
24086;SDS011;22893;50.572;7.234;2023-02-11T19:12:35;16.97;;;5.12;;
24086;SDS011;22893;50.572;7.234;2023-02-11T19:15:05;8.38;;;4.92;;
24086;SDS011;22893;50.572;7.234;2023-02-11T19:17:34;8.33;;;4.87;;
24086;SDS011;22893;50.572;7.234;2023-02-11T19:20:02;10.20;;;5.10;;
24086;SDS011;22893;50.572;7.234;2023-02-11T19:22:30;9.60;;;4.90;;
24086;SDS011;22893;50.572;7.234;2023-02-11T19:24:58;12.43;;;5.03;;
24086;SDS011;22893;50.572;7.234;2023-02-11T19:27:25;10.23;;;4.92;;
24086;SDS011;22893;50.572;7.234;2023-02-11T19:29:53;10.30;;;4.15;;
24086;SDS011;22893;50.572;7.234;2023-02-11T19:32:21;9.05;;;4.85;;
24086;SDS011;22893;50.572;7.234;2023-02-11T19:34:49;10.88;;;4.92;;
24086;SDS011;22893;50.572;7.234;2023-02-11T19:37:18;9.33;;;5.55;;
24086;SDS011;22893;50.572;7.234;2023-02-11T19:39:45;9.20;;;4.85;;
24086;SDS011;22893;50.572;7.234;2023-02-11T19:42:13;10.93;;;4.70;;
24086;SDS011;22893;50.572;7.234;2023-02-11T19:44:44;11.12;;;4.80;;
24086;SDS011;22893;50.572;7.234;2023-02-11T19:47:12;8.00;;;4.60;;
24086;SDS011;22893;50.572;7.234;2023-02-11T19:49:39;9.13;;;5.85;;
24086;SDS011;22893;50.572;7.234;2023-02-11T19:52:07;10.55;;;4.92;;
24086;SDS011;22893;50.572;7.234;2023-02-11T19:54:36;15.53;;;5.22;;
24086;SDS011;22893;50.572;7.234;2023-02-11T19:57:03;8.58;;;4.47;;
24086;SDS011;22893;50.572;7.234;2023-02-11T19:59:31;7.25;;;5.28;;
24086;SDS011;22893;50.572;7.234;2023-02-11T20:01:58;9.58;;;4.12;;
24086;SDS011;22893;50.572;7.234;2023-02-11T20:04:26;12.03;;;4.97;;
24086;SDS011;22893;50.572;7.234;2023-02-11T20:06:55;6.85;;;4.78;;
24086;SDS011;22893;50.572;7.234;2023-02-11T20:09:23;6.62;;;4.03;;
24086;SDS011;22893;50.572;7.234;2023-02-11T20:11:53;9.08;;;5.10;;
24086;SDS011;22893;50.572;7.234;2023-02-11T20:14:20;10.25;;;4.80;;
24086;SDS011;22893;50.572;7.234;2023-02-11T20:16:48;8.98;;;5.37;;
24086;SDS011;22893;50.572;7.234;2023-02-11T20:19:16;8.85;;;4.95;;
24086;SDS011;22893;50.572;7.234;2023-02-11T20:21:46;8.93;;;4.65;;
24086;SDS011;22893;50.572;7.234;2023-02-11T20:24:16;8.15;;;4.20;;
24086;SDS011;22893;50.572;7.234;2023-02-11T20:26:45;8.73;;;4.45;;
24086;SDS011;22893;50.572;7.234;2023-02-11T20:29:18;6.22;;;4.22;;
24086;SDS011;22893;50.572;7.234;2023-02-11T20:31:42;7.67;;;4.75;;
24086;SDS011;22893;50.572;7.234;2023-02-11T20:34:10;13.05;;;4.22;;
24086;SDS011;22893;50.572;7.234;2023-02-11T20:36:38;13.05;;;4.35;;
24086;SDS011;22893;50.572;7.234;2023-02-11T20:39:06;8.03;;;4.60;;
24086;SDS011;22893;50.572;7.234;2023-02-11T20:41:36;8.43;;;3.90;;
24086;SDS011;22893;50.572;7.234;2023-02-11T20:44:09;9.63;;;4.50;;
24086;SDS011;22893;50.572;7.234;2023-02-11T20:46:37;9.18;;;4.37;;
24086;SDS011;22893;50.572;7.234;2023-02-11T20:49:08;9.68;;;4.42;;
24086;SDS011;22893;50.572;7.234;2023-02-11T20:51:37;7.97;;;4.30;;
24086;SDS011;22893;50.572;7.234;2023-02-11T20:54:05;8.75;;;4.40;;
24086;SDS011;22893;50.572;7.234;2023-02-11T20:56:35;8.15;;;4.62;;
24086;SDS011;22893;50.572;7.234;2023-02-11T20:59:04;8.83;;;4.78;;
24086;SDS011;22893;50.572;7.234;2023-02-11T21:01:40;11.03;;;4.92;;
24086;SDS011;22893;50.572;7.234;2023-02-11T21:04:16;12.90;;;5.37;;
24086;SDS011;22893;50.572;7.234;2023-02-11T21:06:42;10.72;;;4.62;;
24086;SDS011;22893;50.572;7.234;2023-02-11T21:09:13;9.60;;;5.67;;
24086;SDS011;22893;50.572;7.234;2023-02-11T21:11:46;6.65;;;4.58;;
24086;SDS011;22893;50.572;7.234;2023-02-11T21:14:17;10.48;;;4.95;;
24086;SDS011;22893;50.572;7.234;2023-02-11T21:19:33;8.45;;;4.70;;
24086;SDS011;22893;50.572;7.234;2023-02-11T21:22:01;6.65;;;4.30;;
24086;SDS011;22893;50.572;7.234;2023-02-11T21:24:29;6.92;;;4.95;;
24086;SDS011;22893;50.572;7.234;2023-02-11T21:26:56;10.95;;;5.05;;
24086;SDS011;22893;50.572;7.234;2023-02-11T21:29:24;9.08;;;4.70;;
24086;SDS011;22893;50.572;7.234;2023-02-11T21:31:52;10.10;;;5.35;;
24086;SDS011;22893;50.572;7.234;2023-02-11T21:34:19;8.43;;;4.67;;
24086;SDS011;22893;50.572;7.234;2023-02-11T21:36:47;14.73;;;5.25;;
24086;SDS011;22893;50.572;7.234;2023-02-11T21:39:15;11.22;;;4.78;;
24086;SDS011;22893;50.572;7.234;2023-02-11T21:41:44;7.15;;;4.67;;
24086;SDS011;22893;50.572;7.234;2023-02-11T21:44:12;16.52;;;5.90;;
24086;SDS011;22893;50.572;7.234;2023-02-11T21:46:39;10.88;;;5.37;;
24086;SDS011;22893;50.572;7.234;2023-02-11T21:49:07;9.28;;;5.03;;
24086;SDS011;22893;50.572;7.234;2023-02-11T21:51:35;8.93;;;5.17;;
24086;SDS011;22893;50.572;7.234;2023-02-11T21:54:03;8.10;;;4.12;;
24086;SDS011;22893;50.572;7.234;2023-02-11T21:56:30;10.20;;;5.25;;
24086;SDS011;22893;50.572;7.234;2023-02-11T21:59:00;7.40;;;4.20;;
24086;SDS011;22893;50.572;7.234;2023-02-11T22:01:28;6.47;;;4.58;;
24086;SDS011;22893;50.572;7.234;2023-02-11T22:04:00;14.58;;;5.08;;
24086;SDS011;22893;50.572;7.234;2023-02-11T22:06:28;8.18;;;5.17;;
24086;SDS011;22893;50.572;7.234;2023-02-11T22:08:57;11.40;;;4.70;;
24086;SDS011;22893;50.572;7.234;2023-02-11T22:11:26;15.48;;;7.03;;
24086;SDS011;22893;50.572;7.234;2023-02-11T22:13:54;11.93;;;5.50;;
24086;SDS011;22893;50.572;7.234;2023-02-11T22:16:24;12.13;;;5.58;;
24086;SDS011;22893;50.572;7.234;2023-02-11T22:18:52;10.45;;;5.90;;
24086;SDS011;22893;50.572;7.234;2023-02-11T22:21:23;9.10;;;4.92;;
24086;SDS011;22893;50.572;7.234;2023-02-11T22:23:50;11.68;;;5.03;;
24086;SDS011;22893;50.572;7.234;2023-02-11T22:26:20;13.25;;;5.12;;
24086;SDS011;22893;50.572;7.234;2023-02-11T22:28:49;10.53;;;5.28;;
24086;SDS011;22893;50.572;7.234;2023-02-11T22:31:19;9.18;;;4.85;;
24086;SDS011;22893;50.572;7.234;2023-02-11T22:33:52;11.12;;;5.03;;
24086;SDS011;22893;50.572;7.234;2023-02-11T22:36:21;12.53;;;5.22;;
24086;SDS011;22893;50.572;7.234;2023-02-11T22:38:50;8.03;;;4.85;;
24086;SDS011;22893;50.572;7.234;2023-02-11T22:41:18;14.60;;;6.17;;
24086;SDS011;22893;50.572;7.234;2023-02-11T22:43:47;12.05;;;5.15;;
24086;SDS011;22893;50.572;7.234;2023-02-11T22:46:16;8.45;;;5.53;;
24086;SDS011;22893;50.572;7.234;2023-02-11T22:48:45;11.08;;;5.28;;
24086;SDS011;22893;50.572;7.234;2023-02-11T22:51:15;10.20;;;5.25;;
24086;SDS011;22893;50.572;7.234;2023-02-11T22:53:54;10.38;;;5.40;;
24086;SDS011;22893;50.572;7.234;2023-02-11T22:56:22;10.13;;;4.67;;
24086;SDS011;22893;50.572;7.234;2023-02-11T22:58:51;9.38;;;5.00;;
24086;SDS011;22893;50.572;7.234;2023-02-11T23:01:20;13.85;;;5.45;;
24086;SDS011;22893;50.572;7.234;2023-02-11T23:03:48;8.18;;;4.78;;
24086;SDS011;22893;50.572;7.234;2023-02-11T23:06:16;12.05;;;5.33;;
24086;SDS011;22893;50.572;7.234;2023-02-11T23:08:43;10.28;;;5.08;;